หน้าหลัก
METAR-TAF:

METAR-TAF

ท่าอากาศยาน :

Arctic Bay, นูนาวุต, แคนาดา

ละติจูด: 73-00-23N, ลองจิจูด: 085-02-50W, ความสูง: 22 ม.

การสังเกตสภาพอากาศปัจจุบัน

รายงานได้ทำขึ้นเมื่อ 12 ชั่วโมงและ 50 นาทีที่แล้ว ณ เวลา 20:00 UTC
ลม 19 นอตจากตะวันตก
อุณหภูมิ -12°C
ความชื้น 72%
ความกดอากาศ 1024 hPa
ทัศนวิสัย: 12.9 กม.
มีเมฆน้อยที่ความสูง 1200 ฟุต
มีเมฆน้อยที่ความสูง 2000 ฟุต

METAR: CYAB 182000Z 26019KT 8SM FEW012 FEW020 M12/M16 A3023 RMK SF1SC1 SF TR SC TR SLP242

เวลา: 04:50 (08:50 UTC)


TAF: หายไป

สังเกตการณ์สภาพอากาศและพยากรณ์อากาศของสนามบินมากกว่า 4000 แห่ง (รายงาน METAR และ TAF).

สถานีที่ดูได้จะแสดงไว้ด้วยจุดสีเหลืองและสีแดงบนแผนที่.

เลื่อนเมาส์ไปเหนือจุดเพื่อดูชื่อสถานี.

แล้วคลิกเพื่อดูสังเกตการณ์และการพยากรณ์สภาพอากาศ.

ในการเปลี่ยนแผนที่: คลิกที่ปุ่มสีเขียวที่มีกากบาทสีดำเพื่อซูมเข้า; ที่ปุ่มสีเขียวที่มีขีดเพื่อซูมออก; หรือที่ลูกศรสีเขียวเพื่อไปยังแผนที่ที่อยู่ติดกัน.


METAR-TAF: